createdAt,value
2023-04-08T00:02:02.895Z,13.90
2023-04-08T00:04:32.104Z,13.20
2023-04-08T00:07:01.549Z,15.10
2023-04-08T00:09:30.072Z,14.10
2023-04-08T00:11:58.493Z,10.40
2023-04-08T00:14:27.389Z,9.30
2023-04-08T00:16:56.578Z,11.40
2023-04-08T00:19:25.584Z,11.70
2023-04-08T00:21:54.056Z,10.10
2023-04-08T00:24:22.400Z,13.00
2023-04-08T00:26:50.734Z,11.30
2023-04-08T00:29:19.479Z,13.80
2023-04-08T00:31:47.869Z,13.60
2023-04-08T00:34:16.168Z,17.30
2023-04-08T00:36:45.874Z,20.70
2023-04-08T00:39:14.728Z,18.80
2023-04-08T00:41:43.456Z,21.10
2023-04-08T00:44:12.000Z,20.20
2023-04-08T00:46:42.069Z,18.70
2023-04-08T00:49:10.593Z,22.50
2023-04-08T00:51:38.814Z,20.60
2023-04-08T00:54:07.919Z,20.70
2023-04-08T00:56:37.054Z,22.80
2023-04-08T00:59:05.406Z,19.30
2023-04-08T01:01:44.200Z,22.90
2023-04-08T01:04:23.106Z,22.70
2023-04-08T01:07:13.452Z,25.80
2023-04-08T01:09:49.284Z,29.40
2023-04-08T01:12:29.226Z,26.20
2023-04-08T01:15:03.117Z,30.50
2023-04-08T01:17:33.286Z,30.20
2023-04-08T01:20:04.066Z,28.40
2023-04-08T01:22:36.336Z,24.20
2023-04-08T01:25:19.579Z,25.00
2023-04-08T01:30:20.076Z,39.90
2023-04-08T01:32:49.273Z,32.90
2023-04-08T01:35:17.638Z,29.70
2023-04-08T01:37:51.924Z,25.20
2023-04-08T01:40:20.704Z,25.50
2023-04-08T01:42:49.162Z,22.30
2023-04-08T01:45:17.495Z,22.80
2023-04-08T01:47:49.158Z,20.50
2023-04-08T01:50:17.491Z,22.40
2023-04-08T01:52:48.853Z,22.10
2023-04-08T01:55:20.492Z,21.10
2023-04-08T01:57:51.668Z,20.80
2023-04-08T02:00:21.756Z,23.30
2023-04-08T02:02:54.193Z,22.60
2023-04-08T02:05:23.504Z,28.30
2023-04-08T02:07:52.328Z,25.80
2023-04-08T02:10:22.845Z,24.80
2023-04-08T02:12:51.097Z,24.20
2023-04-08T02:15:19.763Z,20.60
2023-04-08T02:18:01.192Z,25.50
2023-04-08T02:20:40.238Z,27.60
2023-04-08T02:23:21.286Z,24.30
2023-04-08T02:25:49.728Z,26.30
2023-04-08T02:28:18.826Z,23.50
2023-04-08T02:30:50.386Z,25.70
2023-04-08T02:33:21.277Z,25.30
2023-04-08T02:35:51.310Z,24.50
2023-04-08T02:38:30.148Z,22.50
2023-04-08T02:40:59.162Z,22.80
2023-04-08T02:43:32.027Z,24.30
2023-04-08T02:46:10.197Z,26.70
2023-04-08T02:48:39.832Z,24.00
2023-04-08T02:51:08.639Z,26.60
2023-04-08T02:53:38.808Z,27.90
2023-04-08T02:56:10.990Z,21.60
2023-04-08T02:58:39.328Z,23.70
2023-04-08T03:01:09.143Z,25.50
2023-04-08T03:03:41.440Z,27.00
2023-04-08T03:06:09.903Z,25.80
2023-04-08T03:08:38.290Z,21.90
2023-04-08T03:11:06.575Z,20.70
2023-04-08T03:13:35.790Z,22.90
2023-04-08T03:16:04.315Z,28.50
2023-04-08T03:18:34.237Z,25.80
2023-04-08T03:21:03.687Z,28.60
2023-04-08T03:23:34.339Z,24.90
2023-04-08T03:26:02.865Z,23.20
2023-04-08T03:28:31.353Z,25.30
2023-04-08T03:31:01.206Z,23.80
2023-04-08T03:33:31.499Z,21.20
2023-04-08T03:35:59.745Z,21.10
2023-04-08T03:38:28.062Z,23.00
2023-04-08T03:40:56.390Z,25.40
2023-04-08T03:43:25.970Z,26.80
2023-04-08T03:45:54.410Z,32.70
2023-04-08T03:48:25.329Z,27.30
2023-04-08T03:50:54.222Z,28.80
2023-04-08T03:53:22.856Z,24.50
2023-04-08T03:55:51.390Z,22.60
2023-04-08T03:58:19.938Z,25.10
2023-04-08T04:00:48.390Z,24.70
2023-04-08T04:03:17.918Z,23.80
2023-04-08T04:05:46.604Z,20.60
2023-04-08T04:08:15.695Z,27.90
2023-04-08T04:10:43.972Z,24.50
2023-04-08T04:13:12.211Z,28.70
2023-04-08T04:15:41.160Z,27.60
2023-04-08T04:18:09.885Z,25.40
2023-04-08T04:20:42.676Z,26.70
2023-04-08T04:23:10.974Z,31.10
2023-04-08T04:25:42.120Z,33.00
2023-04-08T04:35:49.554Z,37.50
2023-04-08T04:38:17.972Z,34.80
2023-04-08T04:40:48.016Z,29.50
2023-04-08T04:43:17.483Z,44.50
2023-04-08T04:45:47.427Z,41.50
2023-04-08T04:48:16.740Z,41.80
2023-04-08T04:50:45.796Z,44.10
2023-04-08T04:53:18.871Z,45.70
2023-04-08T04:55:47.373Z,52.80
2023-04-08T04:58:15.691Z,54.40
2023-04-08T05:00:44.596Z,57.40
2023-04-08T05:03:14.076Z,58.00
2023-04-08T05:05:42.578Z,46.30
2023-04-08T05:08:11.554Z,50.50
2023-04-08T05:10:41.453Z,48.80
2023-04-08T05:13:16.236Z,45.50
2023-04-08T05:15:46.357Z,48.90
2023-04-08T05:18:15.726Z,49.00
2023-04-08T05:20:47.270Z,36.80
2023-04-08T05:23:16.109Z,32.80
2023-04-08T05:25:44.431Z,37.30
2023-04-08T05:28:19.629Z,29.60
2023-04-08T05:30:51.810Z,34.40
2023-04-08T05:33:20.591Z,35.80
2023-04-08T05:35:53.443Z,33.40
2023-04-08T05:38:22.235Z,33.50
2023-04-08T05:40:50.651Z,34.00
2023-04-08T05:43:19.228Z,31.50
2023-04-08T05:45:47.693Z,23.40
2023-04-08T05:48:17.277Z,18.20
2023-04-08T05:50:46.748Z,22.30
2023-04-08T05:53:15.459Z,18.10
2023-04-08T05:55:43.729Z,16.30
2023-04-08T05:58:12.442Z,15.70
2023-04-08T06:00:40.807Z,15.40
2023-04-08T06:03:20.489Z,12.40
2023-04-08T06:05:50.534Z,16.10
2023-04-08T06:08:19.800Z,13.30
2023-04-08T06:10:51.770Z,15.80
2023-04-08T06:13:25.801Z,25.00
2023-04-08T06:15:54.451Z,20.30
2023-04-08T06:18:23.038Z,30.70
2023-04-08T06:20:51.278Z,27.10
2023-04-08T06:23:19.443Z,33.60
2023-04-08T06:25:47.857Z,34.10
2023-04-08T06:28:16.460Z,18.50
2023-04-08T06:30:47.852Z,16.80
2023-04-08T06:33:16.212Z,14.60
2023-04-08T06:35:44.450Z,15.50
2023-04-08T06:38:13.537Z,13.80
2023-04-08T06:40:42.066Z,15.20
2023-04-08T06:43:10.611Z,13.00
2023-04-08T06:45:43.151Z,12.50
2023-04-08T06:48:12.221Z,14.00
2023-04-08T06:50:40.626Z,13.20
2023-04-08T06:53:09.881Z,13.70
2023-04-08T06:55:38.463Z,12.20
2023-04-08T06:58:07.664Z,15.40
2023-04-08T07:00:37.257Z,12.30
2023-04-08T07:03:12.610Z,15.80
2023-04-08T07:05:42.526Z,14.30
2023-04-08T07:08:10.918Z,13.00
2023-04-08T07:10:40.235Z,13.90
2023-04-08T07:13:08.608Z,13.40
2023-04-08T07:15:37.555Z,14.70
2023-04-08T07:18:06.410Z,13.90
2023-04-08T07:20:38.634Z,14.20
2023-04-08T07:23:07.132Z,13.80
2023-04-08T07:25:36.208Z,11.80
2023-04-08T07:28:04.582Z,16.70
2023-04-08T07:30:33.636Z,13.90
2023-04-08T07:33:02.135Z,12.50
2023-04-08T07:35:38.590Z,13.30
2023-04-08T07:38:11.779Z,12.80
2023-04-08T07:40:40.121Z,13.10
2023-04-08T07:43:09.843Z,14.40
2023-04-08T07:45:38.212Z,15.90
2023-04-08T07:48:08.539Z,16.70
2023-04-08T07:51:09.146Z,15.80
2023-04-08T07:53:28.837Z,14.40
2023-04-08T07:55:57.292Z,14.50
2023-04-08T08:00:38.518Z,16.40
2023-04-08T08:03:14.116Z,13.60
2023-04-08T08:05:41.408Z,14.80
2023-04-08T08:08:11.400Z,14.60
2023-04-08T08:10:39.080Z,14.90
2023-04-08T08:13:06.512Z,13.70
2023-04-08T08:15:33.743Z,12.10
2023-04-08T08:18:02.335Z,11.10
2023-04-08T08:20:29.857Z,14.00
2023-04-08T08:22:58.082Z,11.50
2023-04-08T08:25:26.261Z,11.70
2023-04-08T08:27:55.041Z,11.30
2023-04-08T08:30:22.159Z,11.70
2023-04-08T08:32:51.644Z,12.40
2023-04-08T08:35:18.861Z,10.50
2023-04-08T08:37:46.358Z,14.10
2023-04-08T08:40:13.789Z,12.70
2023-04-08T08:42:41.092Z,11.20
2023-04-08T08:45:08.452Z,13.10
2023-04-08T08:47:35.897Z,10.50
2023-04-08T08:57:20.414Z,11.20
2023-04-08T08:59:49.563Z,13.00
2023-04-08T09:02:27.230Z,10.80
2023-04-08T09:05:00.598Z,9.90
2023-04-08T09:07:32.405Z,7.70
2023-04-08T09:10:00.825Z,12.50
2023-04-08T09:12:31.647Z,11.10
2023-04-08T09:15:05.074Z,12.60
2023-04-08T09:17:35.265Z,14.50
2023-04-08T09:20:12.219Z,16.40
2023-04-08T09:22:54.152Z,17.20
2023-04-08T09:25:33.131Z,16.90
2023-04-08T09:28:03.397Z,15.60
2023-04-08T09:30:32.594Z,16.00
2023-04-08T09:33:07.651Z,13.50
2023-04-08T09:35:36.745Z,17.60
2023-04-08T09:38:05.204Z,14.60
2023-04-08T09:40:36.685Z,14.70
2023-04-08T09:43:05.964Z,15.70
2023-04-08T09:45:34.561Z,14.00
2023-04-08T09:48:22.084Z,15.10
2023-04-08T09:50:52.192Z,17.00
2023-04-08T09:53:23.446Z,15.70
2023-04-08T09:55:55.709Z,12.90
2023-04-08T09:58:55.285Z,11.00
2023-04-08T10:01:38.157Z,10.90
2023-04-08T10:04:10.210Z,11.60
2023-04-08T10:06:42.088Z,12.50
2023-04-08T10:09:10.709Z,9.10
2023-04-08T10:11:39.011Z,9.50
2023-04-08T10:14:09.801Z,10.00
2023-04-08T10:16:39.076Z,12.20
2023-04-08T10:19:42.312Z,11.80
2023-04-08T10:22:49.041Z,11.60
2023-04-08T10:25:17.531Z,12.40
2023-04-08T10:27:45.862Z,9.50
2023-04-08T10:30:26.796Z,11.00
2023-04-08T10:33:00.170Z,13.10
2023-04-08T10:35:33.010Z,14.60
2023-04-08T10:38:01.798Z,14.70
2023-04-08T10:40:39.189Z,9.90
2023-04-08T10:43:08.171Z,11.80
2023-04-08T10:45:38.719Z,11.80
2023-04-08T10:48:20.841Z,11.20
2023-04-08T10:52:58.650Z,14.40
2023-04-08T10:55:27.565Z,11.90
2023-04-08T10:58:10.022Z,13.90
2023-04-08T11:00:40.227Z,12.70
2023-04-08T11:03:11.979Z,10.70
2023-04-08T11:05:48.034Z,13.20
2023-04-08T11:08:19.538Z,10.60
2023-04-08T11:10:48.942Z,12.60
2023-04-08T11:13:19.252Z,10.90
2023-04-08T11:15:48.467Z,8.70
2023-04-08T11:18:18.288Z,10.30
2023-04-08T11:20:53.234Z,13.40
2023-04-08T11:23:23.222Z,9.40
2023-04-08T11:25:51.632Z,12.90
2023-04-08T11:28:20.921Z,9.70
2023-04-08T11:30:49.812Z,12.00
2023-04-08T11:33:19.014Z,9.20
2023-04-08T11:35:51.440Z,12.90
2023-04-08T11:38:23.061Z,10.10
2023-04-08T11:40:59.339Z,15.00
2023-04-08T11:43:28.905Z,16.40
2023-04-08T11:45:58.687Z,9.70
2023-04-08T11:48:27.577Z,12.60
2023-04-08T11:51:12.800Z,9.10
2023-04-08T11:53:48.089Z,10.70
2023-04-08T11:56:20.488Z,12.80
2023-04-08T11:58:50.839Z,11.60
2023-04-08T12:01:19.826Z,8.40
2023-04-08T12:03:57.246Z,12.30
2023-04-08T12:06:27.647Z,9.60
2023-04-08T12:08:58.262Z,10.60
2023-04-08T12:11:26.500Z,12.90
2023-04-08T12:13:55.855Z,6.80
2023-04-08T12:16:24.398Z,7.40
2023-04-08T12:18:53.079Z,5.80
2023-04-08T12:21:22.086Z,9.10
2023-04-08T12:23:51.342Z,19.60
2023-04-08T12:26:24.567Z,16.90
2023-04-08T12:28:53.017Z,17.80
2023-04-08T12:31:22.924Z,22.40
2023-04-08T12:33:53.413Z,27.80
2023-04-08T12:36:21.783Z,31.00
2023-04-08T12:38:50.975Z,31.00
2023-04-08T12:41:20.322Z,22.30
2023-04-08T12:43:48.852Z,15.60
2023-04-08T12:46:17.943Z,9.10
2023-04-08T12:48:48.960Z,10.40
2023-04-08T12:53:50.157Z,12.00
2023-04-08T12:56:18.586Z,8.50
2023-04-08T12:58:52.476Z,6.40
2023-04-08T13:01:21.107Z,8.40
2023-04-08T13:03:50.356Z,8.30
2023-04-08T13:06:18.943Z,8.00
2023-04-08T13:08:47.635Z,6.20
2023-04-08T13:11:18.158Z,11.70
2023-04-08T13:13:48.868Z,9.70
2023-04-08T13:16:17.379Z,9.70
2023-04-08T13:18:49.527Z,11.70
2023-04-08T13:21:18.045Z,8.50
2023-04-08T13:23:47.120Z,9.30
2023-04-08T13:26:15.454Z,9.20
2023-04-08T13:31:19.961Z,12.40
2023-04-08T13:33:48.719Z,12.80
2023-04-08T13:36:19.066Z,10.70
2023-04-08T13:38:48.753Z,7.80
2023-04-08T13:41:17.711Z,35.70
2023-04-08T13:43:46.114Z,24.50
2023-04-08T13:46:14.684Z,15.20
2023-04-08T13:48:44.741Z,36.30
2023-04-08T13:51:13.538Z,84.00
2023-04-08T13:53:41.842Z,67.40
2023-04-08T13:56:10.062Z,20.30
2023-04-08T13:58:39.602Z,11.10
2023-04-08T14:01:09.377Z,7.40
2023-04-08T14:03:37.929Z,7.70
2023-04-08T14:06:06.298Z,5.40
2023-04-08T14:08:36.251Z,8.40
2023-04-08T14:11:06.342Z,7.20
2023-04-08T14:13:34.801Z,5.00
2023-04-08T14:16:06.508Z,7.00
2023-04-08T14:18:38.644Z,7.40
2023-04-08T14:21:07.703Z,15.10
2023-04-08T14:23:36.432Z,16.30
2023-04-08T14:26:05.171Z,13.70
2023-04-08T14:28:37.981Z,8.20
2023-04-08T14:31:06.510Z,8.40
2023-04-08T14:33:36.318Z,8.00
2023-04-08T14:36:06.452Z,7.90
2023-04-08T14:38:35.340Z,8.90
2023-04-08T14:41:05.461Z,7.90
2023-04-08T14:43:34.392Z,10.50
2023-04-08T14:46:02.706Z,8.90
2023-04-08T14:48:31.546Z,8.20
2023-04-08T14:51:00.259Z,7.00
2023-04-08T14:53:48.498Z,6.10
2023-04-08T14:56:16.990Z,8.50
2023-04-08T14:58:48.039Z,6.90
2023-04-08T15:01:17.182Z,5.50
2023-04-08T15:03:47.643Z,7.10
2023-04-08T15:06:19.733Z,8.30
2023-04-08T15:08:48.505Z,8.80
2023-04-08T15:11:17.287Z,5.80
2023-04-08T15:13:59.705Z,9.20
2023-04-08T15:16:31.676Z,8.70
2023-04-08T15:19:00.683Z,8.70
2023-04-08T15:21:29.741Z,9.40
2023-04-08T15:23:58.741Z,8.50
2023-04-08T15:26:29.483Z,9.20
2023-04-08T15:28:59.391Z,9.70
2023-04-08T15:31:28.027Z,9.90
2023-04-08T15:33:56.765Z,12.90
2023-04-08T15:36:25.444Z,11.80
2023-04-08T15:38:54.449Z,16.80
2023-04-08T15:41:24.960Z,11.30
2023-04-08T15:43:54.255Z,10.70
2023-04-08T15:46:22.828Z,10.90
2023-04-08T15:48:52.100Z,10.20
2023-04-08T15:51:21.154Z,12.70
2023-04-08T15:53:51.970Z,9.40
2023-04-08T15:56:23.027Z,12.40
2023-04-08T15:58:53.145Z,11.30
2023-04-08T16:01:21.743Z,14.00
2023-04-08T16:03:52.610Z,16.30
2023-04-08T16:06:21.139Z,15.30
2023-04-08T16:08:51.876Z,25.90
2023-04-08T16:11:22.799Z,27.30
2023-04-08T16:13:54.060Z,21.70
2023-04-08T16:16:22.881Z,15.10
2023-04-08T16:18:52.898Z,14.40
2023-04-08T16:21:21.364Z,13.60
2023-04-08T16:23:50.138Z,26.60
2023-04-08T16:26:21.985Z,29.60
2023-04-08T16:28:51.949Z,32.90
2023-04-08T16:31:20.404Z,30.20
2023-04-08T16:33:49.921Z,19.70
2023-04-08T16:36:19.433Z,26.20
2023-04-08T16:38:47.778Z,24.20
2023-04-08T16:41:16.249Z,22.10
2023-04-08T16:43:44.628Z,19.70
2023-04-08T16:46:15.548Z,21.80
2023-04-08T16:48:45.131Z,27.70
2023-04-08T16:51:13.664Z,21.90
2023-04-08T16:53:42.773Z,23.40
2023-04-08T16:56:16.680Z,20.40
2023-04-08T16:58:45.738Z,17.00
2023-04-08T17:01:16.747Z,19.40
2023-04-08T17:03:48.818Z,17.00
2023-04-08T17:06:18.118Z,17.50
2023-04-08T17:08:49.371Z,18.90
2023-04-08T17:11:18.360Z,20.10
2023-04-08T17:13:47.219Z,17.10
2023-04-08T17:16:16.886Z,17.70
2023-04-08T17:18:45.436Z,16.30
2023-04-08T17:21:16.788Z,13.00
2023-04-08T17:23:52.531Z,15.20
2023-04-08T17:26:25.164Z,14.50
2023-04-08T17:28:53.859Z,10.50
2023-04-08T17:31:23.104Z,12.40
2023-04-08T17:33:51.880Z,10.70
2023-04-08T17:36:20.338Z,10.90
2023-04-08T17:38:50.238Z,8.60
2023-04-08T17:41:29.802Z,9.00
2023-04-08T17:44:08.042Z,9.10
2023-04-08T17:46:37.159Z,10.30
2023-04-08T17:49:08.272Z,9.30
2023-04-08T17:51:37.555Z,9.60
2023-04-08T17:54:06.217Z,11.80
2023-04-08T17:56:40.445Z,11.50
2023-04-08T17:59:09.328Z,8.80
2023-04-08T18:01:41.391Z,11.60
2023-04-08T18:04:13.020Z,12.40
2023-04-08T18:06:41.568Z,11.60
2023-04-08T18:09:13.174Z,30.00
2023-04-08T18:11:42.861Z,19.80
2023-04-08T18:14:13.968Z,12.70
2023-04-08T18:16:42.575Z,14.10
2023-04-08T18:19:13.844Z,12.00
2023-04-08T18:21:42.280Z,11.60
2023-04-08T18:24:11.267Z,22.70
2023-04-08T18:26:43.934Z,13.30
2023-04-08T18:29:16.242Z,23.20
2023-04-08T18:31:47.898Z,11.60
2023-04-08T18:34:17.426Z,9.50
2023-04-08T18:36:47.326Z,10.90
2023-04-08T18:39:15.735Z,14.30
2023-04-08T18:41:46.559Z,16.80
2023-04-08T18:44:15.637Z,15.60
2023-04-08T18:46:46.134Z,21.10
2023-04-08T18:49:15.086Z,15.60
2023-04-08T18:51:58.913Z,15.20
2023-04-08T18:54:32.387Z,12.30
2023-04-08T18:57:03.082Z,10.50
2023-04-08T18:59:33.063Z,9.40
2023-04-08T19:02:01.766Z,9.70
2023-04-08T19:04:31.015Z,8.40
2023-04-08T19:06:59.514Z,9.80
2023-04-08T19:09:27.768Z,12.20
2023-04-08T19:11:56.840Z,13.80
2023-04-08T19:14:25.779Z,15.10
2023-04-08T19:16:57.013Z,13.50
2023-04-08T19:19:28.110Z,14.50
2023-04-08T19:21:56.502Z,12.80
2023-04-08T19:24:27.101Z,10.90
2023-04-08T19:26:56.197Z,18.30
2023-04-08T19:29:24.681Z,14.80
2023-04-08T19:31:53.878Z,15.60
2023-04-08T19:34:22.140Z,13.80
2023-04-08T19:36:50.970Z,15.20
2023-04-08T19:39:25.975Z,17.70
2023-04-08T19:42:01.475Z,22.70
2023-04-08T19:47:11.852Z,17.60
2023-04-08T19:49:40.646Z,17.40
2023-04-08T19:52:11.188Z,23.00
2023-04-08T19:54:43.653Z,19.50
2023-04-08T19:57:13.152Z,26.60
2023-04-08T19:59:41.920Z,22.70
2023-04-08T20:02:11.385Z,26.60
2023-04-08T20:04:42.068Z,31.30
2023-04-08T20:07:10.726Z,30.50
2023-04-08T20:09:39.757Z,26.30
2023-04-08T20:12:09.395Z,24.80
2023-04-08T20:14:42.444Z,26.50
2023-04-08T20:17:11.973Z,24.60
2023-04-08T20:19:42.241Z,28.40
2023-04-08T20:22:12.939Z,29.80
2023-04-08T20:24:42.433Z,25.80
2023-04-08T20:27:14.431Z,30.00
2023-04-08T20:29:43.851Z,29.30
2023-04-08T20:32:13.634Z,30.40
2023-04-08T20:34:42.870Z,33.30
2023-04-08T20:37:12.336Z,23.60
2023-04-08T20:39:41.515Z,26.50
2023-04-08T20:42:09.969Z,20.00
2023-04-08T20:44:38.672Z,17.50
2023-04-08T20:47:09.498Z,15.80
2023-04-08T20:49:41.357Z,12.50
2023-04-08T20:52:16.676Z,12.40
2023-04-08T20:54:45.887Z,18.90
2023-04-08T20:57:14.132Z,16.40
2023-04-08T20:59:42.374Z,14.40
2023-04-08T21:02:10.989Z,11.20
2023-04-08T21:04:40.002Z,17.70
2023-04-08T21:07:08.242Z,19.30
2023-04-08T21:09:36.909Z,25.80
2023-04-08T21:12:05.095Z,34.40
2023-04-08T21:14:34.969Z,41.20
2023-04-08T21:17:03.794Z,36.60
2023-04-08T21:19:32.120Z,31.50
2023-04-08T21:22:00.621Z,24.90
2023-04-08T21:24:29.900Z,21.70
2023-04-08T21:26:58.251Z,24.30
2023-04-08T21:29:26.900Z,25.00
2023-04-08T21:31:55.878Z,27.00
2023-04-08T21:34:24.171Z,27.40
2023-04-08T21:36:52.486Z,26.70
2023-04-08T21:39:21.398Z,27.70
2023-04-08T21:41:49.651Z,28.30
2023-04-08T21:44:17.929Z,33.30
2023-04-08T21:46:46.131Z,27.70
2023-04-08T21:49:14.410Z,38.40
2023-04-08T21:51:42.670Z,35.60
2023-04-08T21:54:11.170Z,32.60
2023-04-08T21:56:39.572Z,34.90
2023-04-08T21:59:08.243Z,33.90
2023-04-08T22:01:37.289Z,38.50
2023-04-08T22:04:06.531Z,40.60
2023-04-08T22:06:34.909Z,39.50
2023-04-08T22:09:03.956Z,38.30
2023-04-08T22:11:32.474Z,45.00
2023-04-08T22:14:00.708Z,47.80
2023-04-08T22:16:29.840Z,47.80
2023-04-08T22:18:58.657Z,56.30
2023-04-08T22:21:29.805Z,57.60
2023-04-08T22:23:59.076Z,53.90
2023-04-08T22:26:27.885Z,60.90
2023-04-08T22:28:59.946Z,59.30
2023-04-08T22:31:30.145Z,52.70
2023-04-08T22:34:00.167Z,49.40
2023-04-08T22:36:28.632Z,54.90
2023-04-08T22:38:56.803Z,55.90
2023-04-08T22:41:25.012Z,56.70
2023-04-08T22:43:53.920Z,47.10
2023-04-08T22:46:22.701Z,52.30
2023-04-08T22:48:51.385Z,46.60
2023-04-08T22:51:21.095Z,50.80
2023-04-08T22:53:49.310Z,49.30
2023-04-08T22:56:17.559Z,45.10
2023-04-08T22:58:50.824Z,51.20
2023-04-08T23:01:22.519Z,49.40
2023-04-08T23:03:51.788Z,45.20
2023-04-08T23:06:29.018Z,47.30
2023-04-08T23:10:47.187Z,47.80
2023-04-08T23:13:15.725Z,51.50
2023-04-08T23:15:44.559Z,51.90
2023-04-08T23:18:12.917Z,50.20
2023-04-08T23:20:41.228Z,57.70
2023-04-08T23:23:09.831Z,52.50
2023-04-08T23:25:38.409Z,53.70
2023-04-08T23:28:09.207Z,50.30
2023-04-08T23:30:37.934Z,52.90
2023-04-08T23:33:06.924Z,48.40
2023-04-08T23:35:35.651Z,47.10
2023-04-08T23:38:04.292Z,47.50
2023-04-08T23:40:32.568Z,48.00
2023-04-08T23:43:03.840Z,47.60
2023-04-08T23:45:33.729Z,50.20
2023-04-08T23:48:02.295Z,43.70
2023-04-08T23:50:31.933Z,48.70
2023-04-08T23:53:00.926Z,44.30
2023-04-08T23:55:29.345Z,46.40
2023-04-08T23:57:57.629Z,42.10
